sensor_id;sensor_type;location;lat;lon;timestamp;P1;durP1;ratioP1;P2;durP2;ratioP2
13927;SDS011;7036;50.834;4.718;2022-07-10T00:00:17;1.20;;;0.80;;
13927;SDS011;7036;50.834;4.718;2022-07-10T00:02:44;2.50;;;0.80;;
13927;SDS011;7036;50.834;4.718;2022-07-10T00:05:11;1.40;;;0.93;;
13927;SDS011;7036;50.834;4.718;2022-07-10T00:07:37;1.27;;;1.00;;
13927;SDS011;7036;50.834;4.718;2022-07-10T00:10:05;2.10;;;0.90;;
13927;SDS011;7036;50.834;4.718;2022-07-10T00:12:32;1.10;;;0.73;;
13927;SDS011;7036;50.834;4.718;2022-07-10T00:14:59;1.73;;;0.80;;
13927;SDS011;7036;50.834;4.718;2022-07-10T00:17:26;1.87;;;1.17;;
13927;SDS011;7036;50.834;4.718;2022-07-10T00:19:53;4.03;;;1.07;;
13927;SDS011;7036;50.834;4.718;2022-07-10T00:22:20;1.43;;;0.80;;
13927;SDS011;7036;50.834;4.718;2022-07-10T00:24:46;0.83;;;0.70;;
13927;SDS011;7036;50.834;4.718;2022-07-10T00:27:13;0.80;;;0.80;;
13927;SDS011;7036;50.834;4.718;2022-07-10T00:29:40;1.40;;;0.87;;
13927;SDS011;7036;50.834;4.718;2022-07-10T00:32:07;1.20;;;0.80;;
13927;SDS011;7036;50.834;4.718;2022-07-10T00:34:34;1.00;;;0.90;;
13927;SDS011;7036;50.834;4.718;2022-07-10T00:37:01;1.00;;;0.70;;
13927;SDS011;7036;50.834;4.718;2022-07-10T00:39:28;1.70;;;0.73;;
13927;SDS011;7036;50.834;4.718;2022-07-10T00:42:05;0.97;;;0.87;;
13927;SDS011;7036;50.834;4.718;2022-07-10T00:44:31;1.17;;;0.90;;
13927;SDS011;7036;50.834;4.718;2022-07-10T00:46:58;2.37;;;1.00;;
13927;SDS011;7036;50.834;4.718;2022-07-10T00:49:25;1.30;;;0.90;;
13927;SDS011;7036;50.834;4.718;2022-07-10T00:51:52;1.63;;;0.90;;
13927;SDS011;7036;50.834;4.718;2022-07-10T00:54:19;1.93;;;1.00;;
13927;SDS011;7036;50.834;4.718;2022-07-10T00:56:46;0.63;;;0.63;;
13927;SDS011;7036;50.834;4.718;2022-07-10T00:59:13;1.90;;;0.80;;
13927;SDS011;7036;50.834;4.718;2022-07-10T01:01:40;0.87;;;0.80;;
13927;SDS011;7036;50.834;4.718;2022-07-10T01:04:06;2.27;;;1.00;;
13927;SDS011;7036;50.834;4.718;2022-07-10T01:06:33;2.43;;;1.10;;
13927;SDS011;7036;50.834;4.718;2022-07-10T01:09:00;1.40;;;1.10;;
13927;SDS011;7036;50.834;4.718;2022-07-10T01:11:27;1.40;;;1.30;;
13927;SDS011;7036;50.834;4.718;2022-07-10T01:13:54;1.63;;;1.00;;
13927;SDS011;7036;50.834;4.718;2022-07-10T01:16:21;1.43;;;0.70;;
13927;SDS011;7036;50.834;4.718;2022-07-10T01:18:48;1.27;;;0.90;;
13927;SDS011;7036;50.834;4.718;2022-07-10T01:21:29;0.77;;;0.73;;
13927;SDS011;7036;50.834;4.718;2022-07-10T01:23:55;1.33;;;0.90;;
13927;SDS011;7036;50.834;4.718;2022-07-10T01:26:22;1.43;;;0.83;;
13927;SDS011;7036;50.834;4.718;2022-07-10T01:28:52;1.60;;;1.17;;
13927;SDS011;7036;50.834;4.718;2022-07-10T01:31:19;5.07;;;1.67;;
13927;SDS011;7036;50.834;4.718;2022-07-10T01:33:46;0.90;;;0.73;;
13927;SDS011;7036;50.834;4.718;2022-07-10T01:36:13;2.60;;;1.07;;
13927;SDS011;7036;50.834;4.718;2022-07-10T01:38:40;1.77;;;0.80;;
13927;SDS011;7036;50.834;4.718;2022-07-10T01:41:07;1.80;;;1.17;;
13927;SDS011;7036;50.834;4.718;2022-07-10T01:43:34;2.20;;;1.10;;
13927;SDS011;7036;50.834;4.718;2022-07-10T01:46:01;0.73;;;0.70;;
13927;SDS011;7036;50.834;4.718;2022-07-10T01:48:28;0.90;;;0.80;;
13927;SDS011;7036;50.834;4.718;2022-07-10T01:50:56;2.10;;;0.80;;
13927;SDS011;7036;50.834;4.718;2022-07-10T01:53:22;1.43;;;1.30;;
13927;SDS011;7036;50.834;4.718;2022-07-10T01:55:49;1.57;;;0.87;;
13927;SDS011;7036;50.834;4.718;2022-07-10T01:58:17;1.93;;;1.00;;
13927;SDS011;7036;50.834;4.718;2022-07-10T02:00:44;2.77;;;1.00;;
13927;SDS011;7036;50.834;4.718;2022-07-10T02:03:11;1.23;;;0.80;;
13927;SDS011;7036;50.834;4.718;2022-07-10T02:05:56;1.90;;;0.93;;
13927;SDS011;7036;50.834;4.718;2022-07-10T02:08:23;1.23;;;0.77;;
13927;SDS011;7036;50.834;4.718;2022-07-10T02:10:50;3.03;;;1.03;;
13927;SDS011;7036;50.834;4.718;2022-07-10T02:13:17;2.23;;;0.97;;
13927;SDS011;7036;50.834;4.718;2022-07-10T02:15:44;2.27;;;1.13;;
13927;SDS011;7036;50.834;4.718;2022-07-10T02:18:11;1.27;;;1.07;;
13927;SDS011;7036;50.834;4.718;2022-07-10T02:20:38;1.40;;;1.10;;
13927;SDS011;7036;50.834;4.718;2022-07-10T02:23:05;1.63;;;1.07;;
13927;SDS011;7036;50.834;4.718;2022-07-10T02:25:32;2.57;;;0.80;;
13927;SDS011;7036;50.834;4.718;2022-07-10T02:27:59;1.20;;;0.87;;
13927;SDS011;7036;50.834;4.718;2022-07-10T02:30:25;2.60;;;0.97;;
13927;SDS011;7036;50.834;4.718;2022-07-10T02:32:52;1.57;;;1.40;;
13927;SDS011;7036;50.834;4.718;2022-07-10T02:35:19;3.03;;;1.30;;
13927;SDS011;7036;50.834;4.718;2022-07-10T02:37:46;2.33;;;1.10;;
13927;SDS011;7036;50.834;4.718;2022-07-10T02:40:14;2.97;;;1.10;;
13927;SDS011;7036;50.834;4.718;2022-07-10T02:42:40;2.33;;;1.00;;
13927;SDS011;7036;50.834;4.718;2022-07-10T02:45:07;1.27;;;0.90;;
13927;SDS011;7036;50.834;4.718;2022-07-10T02:47:34;3.03;;;1.50;;
13927;SDS011;7036;50.834;4.718;2022-07-10T02:50:01;4.00;;;1.00;;
13927;SDS011;7036;50.834;4.718;2022-07-10T02:52:28;2.67;;;1.37;;
13927;SDS011;7036;50.834;4.718;2022-07-10T02:54:55;2.77;;;1.03;;
13927;SDS011;7036;50.834;4.718;2022-07-10T02:57:22;1.50;;;1.13;;
13927;SDS011;7036;50.834;4.718;2022-07-10T02:59:49;3.43;;;1.17;;
13927;SDS011;7036;50.834;4.718;2022-07-10T03:02:16;1.17;;;1.00;;
13927;SDS011;7036;50.834;4.718;2022-07-10T03:04:43;0.70;;;0.60;;
13927;SDS011;7036;50.834;4.718;2022-07-10T03:07:10;1.70;;;0.93;;
13927;SDS011;7036;50.834;4.718;2022-07-10T03:09:38;2.10;;;1.03;;
13927;SDS011;7036;50.834;4.718;2022-07-10T03:12:05;3.70;;;1.50;;
13927;SDS011;7036;50.834;4.718;2022-07-10T03:14:32;1.87;;;1.20;;
13927;SDS011;7036;50.834;4.718;2022-07-10T03:16:58;2.27;;;1.20;;
13927;SDS011;7036;50.834;4.718;2022-07-10T03:19:25;3.03;;;1.13;;
13927;SDS011;7036;50.834;4.718;2022-07-10T03:21:52;1.60;;;1.03;;
13927;SDS011;7036;50.834;4.718;2022-07-10T03:24:20;2.10;;;0.90;;
13927;SDS011;7036;50.834;4.718;2022-07-10T03:26:47;2.53;;;1.13;;
13927;SDS011;7036;50.834;4.718;2022-07-10T03:29:15;1.70;;;1.27;;
13927;SDS011;7036;50.834;4.718;2022-07-10T03:31:41;2.03;;;1.30;;
13927;SDS011;7036;50.834;4.718;2022-07-10T03:34:08;1.53;;;0.87;;
13927;SDS011;7036;50.834;4.718;2022-07-10T03:36:35;1.47;;;1.10;;
13927;SDS011;7036;50.834;4.718;2022-07-10T03:39:02;2.47;;;0.90;;
13927;SDS011;7036;50.834;4.718;2022-07-10T03:41:29;2.40;;;1.10;;
13927;SDS011;7036;50.834;4.718;2022-07-10T03:43:56;2.87;;;1.30;;
13927;SDS011;7036;50.834;4.718;2022-07-10T03:46:23;1.80;;;1.13;;
13927;SDS011;7036;50.834;4.718;2022-07-10T03:48:50;2.47;;;1.10;;
13927;SDS011;7036;50.834;4.718;2022-07-10T03:51:17;3.77;;;1.20;;
13927;SDS011;7036;50.834;4.718;2022-07-10T03:53:44;2.33;;;0.90;;
13927;SDS011;7036;50.834;4.718;2022-07-10T03:56:11;1.73;;;1.10;;
13927;SDS011;7036;50.834;4.718;2022-07-10T03:58:38;2.00;;;0.83;;
13927;SDS011;7036;50.834;4.718;2022-07-10T04:01:05;3.03;;;1.00;;
13927;SDS011;7036;50.834;4.718;2022-07-10T04:03:32;2.87;;;1.10;;
13927;SDS011;7036;50.834;4.718;2022-07-10T04:05:58;2.57;;;1.03;;
13927;SDS011;7036;50.834;4.718;2022-07-10T04:08:25;2.10;;;0.90;;
13927;SDS011;7036;50.834;4.718;2022-07-10T04:10:53;1.70;;;0.97;;
13927;SDS011;7036;50.834;4.718;2022-07-10T04:13:20;0.87;;;0.83;;
13927;SDS011;7036;50.834;4.718;2022-07-10T04:15:47;1.40;;;1.03;;
13927;SDS011;7036;50.834;4.718;2022-07-10T04:18:14;1.53;;;1.00;;
13927;SDS011;7036;50.834;4.718;2022-07-10T04:20:41;1.27;;;1.07;;
13927;SDS011;7036;50.834;4.718;2022-07-10T04:23:07;1.23;;;1.00;;
13927;SDS011;7036;50.834;4.718;2022-07-10T04:25:34;2.23;;;1.10;;
13927;SDS011;7036;50.834;4.718;2022-07-10T04:28:01;1.93;;;0.80;;
13927;SDS011;7036;50.834;4.718;2022-07-10T04:30:28;3.33;;;1.30;;
13927;SDS011;7036;50.834;4.718;2022-07-10T04:32:55;2.23;;;1.20;;
13927;SDS011;7036;50.834;4.718;2022-07-10T04:35:22;1.93;;;0.97;;
13927;SDS011;7036;50.834;4.718;2022-07-10T04:37:49;4.03;;;0.98;;
13927;SDS011;7036;50.834;4.718;2022-07-10T04:40:16;2.00;;;0.90;;
13927;SDS011;7036;50.834;4.718;2022-07-10T04:42:43;4.83;;;1.27;;
13927;SDS011;7036;50.834;4.718;2022-07-10T04:45:10;3.53;;;1.27;;
13927;SDS011;7036;50.834;4.718;2022-07-10T04:47:37;2.60;;;0.80;;
13927;SDS011;7036;50.834;4.718;2022-07-10T04:50:04;1.10;;;1.00;;
13927;SDS011;7036;50.834;4.718;2022-07-10T04:52:31;2.17;;;1.10;;
13927;SDS011;7036;50.834;4.718;2022-07-10T04:55:01;1.57;;;0.90;;
13927;SDS011;7036;50.834;4.718;2022-07-10T04:57:26;2.70;;;1.07;;
13927;SDS011;7036;50.834;4.718;2022-07-10T04:59:52;1.83;;;1.00;;
13927;SDS011;7036;50.834;4.718;2022-07-10T05:02:19;1.13;;;0.80;;
13927;SDS011;7036;50.834;4.718;2022-07-10T05:04:46;2.20;;;0.93;;
13927;SDS011;7036;50.834;4.718;2022-07-10T05:07:13;1.20;;;0.80;;
13927;SDS011;7036;50.834;4.718;2022-07-10T05:09:40;1.97;;;0.93;;
13927;SDS011;7036;50.834;4.718;2022-07-10T05:12:07;1.70;;;0.90;;
13927;SDS011;7036;50.834;4.718;2022-07-10T05:14:34;2.33;;;0.90;;
13927;SDS011;7036;50.834;4.718;2022-07-10T05:17:01;1.70;;;1.00;;
13927;SDS011;7036;50.834;4.718;2022-07-10T05:19:27;1.70;;;0.93;;
13927;SDS011;7036;50.834;4.718;2022-07-10T05:21:54;1.07;;;0.83;;
13927;SDS011;7036;50.834;4.718;2022-07-10T05:24:21;0.80;;;0.80;;
13927;SDS011;7036;50.834;4.718;2022-07-10T05:26:48;1.37;;;1.10;;
13927;SDS011;7036;50.834;4.718;2022-07-10T05:29:15;3.30;;;1.20;;
13927;SDS011;7036;50.834;4.718;2022-07-10T05:31:42;1.17;;;0.70;;
13927;SDS011;7036;50.834;4.718;2022-07-10T05:34:09;2.83;;;0.90;;
13927;SDS011;7036;50.834;4.718;2022-07-10T05:36:36;4.00;;;1.43;;
13927;SDS011;7036;50.834;4.718;2022-07-10T05:39:03;1.30;;;1.20;;
13927;SDS011;7036;50.834;4.718;2022-07-10T05:41:30;3.87;;;0.97;;
13927;SDS011;7036;50.834;4.718;2022-07-10T05:43:57;1.13;;;1.03;;
13927;SDS011;7036;50.834;4.718;2022-07-10T05:46:24;1.80;;;1.07;;
13927;SDS011;7036;50.834;4.718;2022-07-10T05:48:51;2.90;;;1.50;;
13927;SDS011;7036;50.834;4.718;2022-07-10T05:51:18;3.07;;;1.47;;
13927;SDS011;7036;50.834;4.718;2022-07-10T05:53:45;1.37;;;1.00;;
13927;SDS011;7036;50.834;4.718;2022-07-10T05:56:12;2.87;;;1.00;;
13927;SDS011;7036;50.834;4.718;2022-07-10T05:58:38;2.40;;;1.10;;
13927;SDS011;7036;50.834;4.718;2022-07-10T06:01:06;1.50;;;1.10;;
13927;SDS011;7036;50.834;4.718;2022-07-10T06:03:32;1.90;;;1.20;;
13927;SDS011;7036;50.834;4.718;2022-07-10T06:05:59;2.03;;;1.00;;
13927;SDS011;7036;50.834;4.718;2022-07-10T06:08:27;1.27;;;1.17;;
13927;SDS011;7036;50.834;4.718;2022-07-10T06:10:55;2.33;;;1.00;;
13927;SDS011;7036;50.834;4.718;2022-07-10T06:13:22;2.87;;;1.43;;
13927;SDS011;7036;50.834;4.718;2022-07-10T06:15:48;5.43;;;0.97;;
13927;SDS011;7036;50.834;4.718;2022-07-10T06:18:15;2.80;;;1.50;;
13927;SDS011;7036;50.834;4.718;2022-07-10T06:20:42;3.07;;;1.20;;
13927;SDS011;7036;50.834;4.718;2022-07-10T06:23:09;3.00;;;1.00;;
13927;SDS011;7036;50.834;4.718;2022-07-10T06:25:37;10.88;;;1.77;;
13927;SDS011;7036;50.834;4.718;2022-07-10T06:28:04;4.87;;;1.70;;
13927;SDS011;7036;50.834;4.718;2022-07-10T06:30:31;5.63;;;1.83;;
13927;SDS011;7036;50.834;4.718;2022-07-10T06:32:58;7.47;;;1.97;;
13927;SDS011;7036;50.834;4.718;2022-07-10T06:35:25;5.43;;;1.80;;
13927;SDS011;7036;50.834;4.718;2022-07-10T06:37:52;6.63;;;1.70;;
13927;SDS011;7036;50.834;4.718;2022-07-10T06:40:20;9.87;;;2.40;;
13927;SDS011;7036;50.834;4.718;2022-07-10T06:42:46;6.40;;;1.60;;
13927;SDS011;7036;50.834;4.718;2022-07-10T06:45:13;8.00;;;1.70;;
13927;SDS011;7036;50.834;4.718;2022-07-10T06:47:40;8.23;;;1.40;;
13927;SDS011;7036;50.834;4.718;2022-07-10T06:50:22;2.70;;;1.80;;
13927;SDS011;7036;50.834;4.718;2022-07-10T06:52:49;10.90;;;2.03;;
13927;SDS011;7036;50.834;4.718;2022-07-10T06:55:17;7.47;;;2.30;;
13927;SDS011;7036;50.834;4.718;2022-07-10T06:57:43;5.63;;;2.33;;
13927;SDS011;7036;50.834;4.718;2022-07-10T07:00:10;7.50;;;2.13;;
13927;SDS011;7036;50.834;4.718;2022-07-10T07:02:37;8.57;;;1.73;;
13927;SDS011;7036;50.834;4.718;2022-07-10T07:05:05;10.67;;;1.80;;
13927;SDS011;7036;50.834;4.718;2022-07-10T07:07:32;4.80;;;1.97;;
13927;SDS011;7036;50.834;4.718;2022-07-10T07:09:59;8.67;;;2.13;;
13927;SDS011;7036;50.834;4.718;2022-07-10T07:12:26;8.67;;;2.10;;
13927;SDS011;7036;50.834;4.718;2022-07-10T07:14:53;4.77;;;1.40;;
13927;SDS011;7036;50.834;4.718;2022-07-10T07:17:20;10.77;;;2.37;;
13927;SDS011;7036;50.834;4.718;2022-07-10T07:19:55;9.40;;;2.67;;
13927;SDS011;7036;50.834;4.718;2022-07-10T07:22:38;4.13;;;1.93;;
13927;SDS011;7036;50.834;4.718;2022-07-10T07:25:23;8.27;;;1.60;;
13927;SDS011;7036;50.834;4.718;2022-07-10T07:27:51;10.55;;;2.10;;
13927;SDS011;7036;50.834;4.718;2022-07-10T07:30:18;4.87;;;1.73;;
13927;SDS011;7036;50.834;4.718;2022-07-10T07:32:45;7.80;;;2.00;;
13927;SDS011;7036;50.834;4.718;2022-07-10T07:35:12;7.07;;;1.60;;
13927;SDS011;7036;50.834;4.718;2022-07-10T07:37:39;3.90;;;1.67;;
13927;SDS011;7036;50.834;4.718;2022-07-10T07:40:10;7.63;;;1.67;;
13927;SDS011;7036;50.834;4.718;2022-07-10T07:42:36;3.27;;;1.40;;
13927;SDS011;7036;50.834;4.718;2022-07-10T07:45:03;4.77;;;1.40;;
13927;SDS011;7036;50.834;4.718;2022-07-10T07:47:31;9.80;;;1.95;;
13927;SDS011;7036;50.834;4.718;2022-07-10T07:50:01;5.53;;;1.50;;
13927;SDS011;7036;50.834;4.718;2022-07-10T07:52:24;4.20;;;1.73;;
13927;SDS011;7036;50.834;4.718;2022-07-10T07:54:51;7.10;;;1.40;;
13927;SDS011;7036;50.834;4.718;2022-07-10T07:57:18;5.87;;;1.67;;
13927;SDS011;7036;50.834;4.718;2022-07-10T07:59:46;6.07;;;1.30;;
13927;SDS011;7036;50.834;4.718;2022-07-10T08:02:13;7.80;;;1.53;;
13927;SDS011;7036;50.834;4.718;2022-07-10T08:04:39;4.07;;;1.40;;
13927;SDS011;7036;50.834;4.718;2022-07-10T08:07:06;6.83;;;1.57;;
13927;SDS011;7036;50.834;4.718;2022-07-10T08:09:33;4.60;;;1.67;;
13927;SDS011;7036;50.834;4.718;2022-07-10T08:12:00;5.07;;;1.50;;
13927;SDS011;7036;50.834;4.718;2022-07-10T08:14:27;4.27;;;1.67;;
13927;SDS011;7036;50.834;4.718;2022-07-10T08:16:55;2.75;;;1.65;;
13927;SDS011;7036;50.834;4.718;2022-07-10T08:19:22;3.63;;;1.40;;
13927;SDS011;7036;50.834;4.718;2022-07-10T08:21:49;3.37;;;1.07;;
13927;SDS011;7036;50.834;4.718;2022-07-10T08:24:16;2.03;;;1.10;;
13927;SDS011;7036;50.834;4.718;2022-07-10T08:26:43;6.27;;;1.57;;
13927;SDS011;7036;50.834;4.718;2022-07-10T08:29:13;1.70;;;1.17;;
13927;SDS011;7036;50.834;4.718;2022-07-10T08:31:39;2.93;;;1.37;;
13927;SDS011;7036;50.834;4.718;2022-07-10T08:34:06;3.43;;;1.57;;
13927;SDS011;7036;50.834;4.718;2022-07-10T08:36:33;4.57;;;2.07;;
13927;SDS011;7036;50.834;4.718;2022-07-10T08:39:00;10.48;;;3.63;;
13927;SDS011;7036;50.834;4.718;2022-07-10T08:41:27;14.87;;;5.10;;
13927;SDS011;7036;50.834;4.718;2022-07-10T08:43:54;11.30;;;5.03;;
13927;SDS011;7036;50.834;4.718;2022-07-10T08:46:21;9.07;;;3.63;;
13927;SDS011;7036;50.834;4.718;2022-07-10T08:48:49;12.82;;;3.40;;
13927;SDS011;7036;50.834;4.718;2022-07-10T08:54:01;11.87;;;3.17;;
13927;SDS011;7036;50.834;4.718;2022-07-10T08:56:27;7.33;;;3.23;;
13927;SDS011;7036;50.834;4.718;2022-07-10T08:58:55;6.40;;;2.90;;
13927;SDS011;7036;50.834;4.718;2022-07-10T09:01:22;9.03;;;2.83;;
13927;SDS011;7036;50.834;4.718;2022-07-10T09:03:49;7.20;;;2.90;;
13927;SDS011;7036;50.834;4.718;2022-07-10T09:06:18;8.17;;;2.87;;
13927;SDS011;7036;50.834;4.718;2022-07-10T09:09:02;7.27;;;2.63;;
13927;SDS011;7036;50.834;4.718;2022-07-10T09:11:28;9.47;;;2.77;;
13927;SDS011;7036;50.834;4.718;2022-07-10T09:13:58;6.97;;;2.63;;
13927;SDS011;7036;50.834;4.718;2022-07-10T09:18:51;7.47;;;2.43;;
13927;SDS011;7036;50.834;4.718;2022-07-10T09:21:18;4.97;;;1.90;;
13927;SDS011;7036;50.834;4.718;2022-07-10T09:23:45;8.47;;;3.13;;
13927;SDS011;7036;50.834;4.718;2022-07-10T09:26:12;6.43;;;2.10;;
13927;SDS011;7036;50.834;4.718;2022-07-10T09:28:39;4.80;;;2.40;;
13927;SDS011;7036;50.834;4.718;2022-07-10T09:31:06;5.00;;;2.53;;
13927;SDS011;7036;50.834;4.718;2022-07-10T09:33:33;6.83;;;2.40;;
13927;SDS011;7036;50.834;4.718;2022-07-10T09:36:07;4.70;;;1.90;;
13927;SDS011;7036;50.834;4.718;2022-07-10T09:41:15;4.93;;;2.10;;
13927;SDS011;7036;50.834;4.718;2022-07-10T09:43:45;4.47;;;1.70;;
13927;SDS011;7036;50.834;4.718;2022-07-10T09:46:21;6.50;;;2.23;;
13927;SDS011;7036;50.834;4.718;2022-07-10T09:48:59;6.27;;;1.80;;
13927;SDS011;7036;50.834;4.718;2022-07-10T09:51:15;8.33;;;2.03;;
13927;SDS011;7036;50.834;4.718;2022-07-10T09:53:43;6.97;;;1.80;;
13927;SDS011;7036;50.834;4.718;2022-07-10T09:56:09;3.50;;;1.87;;
13927;SDS011;7036;50.834;4.718;2022-07-10T09:58:36;4.70;;;2.00;;
13927;SDS011;7036;50.834;4.718;2022-07-10T10:01:08;3.57;;;1.60;;
13927;SDS011;7036;50.834;4.718;2022-07-10T10:03:37;4.80;;;2.00;;
13927;SDS011;7036;50.834;4.718;2022-07-10T10:08:37;2.97;;;1.93;;
13927;SDS011;7036;50.834;4.718;2022-07-10T10:11:03;5.20;;;2.07;;
13927;SDS011;7036;50.834;4.718;2022-07-10T10:13:31;1.90;;;1.50;;
13927;SDS011;7036;50.834;4.718;2022-07-10T10:15:57;4.43;;;1.70;;
13927;SDS011;7036;50.834;4.718;2022-07-10T10:18:25;5.47;;;2.03;;
13927;SDS011;7036;50.834;4.718;2022-07-10T10:20:52;3.70;;;1.83;;
13927;SDS011;7036;50.834;4.718;2022-07-10T10:23:19;3.30;;;1.77;;
13927;SDS011;7036;50.834;4.718;2022-07-10T10:25:45;2.77;;;1.10;;
13927;SDS011;7036;50.834;4.718;2022-07-10T10:28:12;7.73;;;1.73;;
13927;SDS011;7036;50.834;4.718;2022-07-10T10:30:40;3.43;;;1.43;;
13927;SDS011;7036;50.834;4.718;2022-07-10T10:35:59;3.90;;;1.50;;
13927;SDS011;7036;50.834;4.718;2022-07-10T10:41:26;2.73;;;1.70;;
13927;SDS011;7036;50.834;4.718;2022-07-10T10:46:52;3.87;;;1.17;;
13927;SDS011;7036;50.834;4.718;2022-07-10T10:49:06;3.83;;;1.37;;
13927;SDS011;7036;50.834;4.718;2022-07-10T10:54:28;3.67;;;1.40;;
13927;SDS011;7036;50.834;4.718;2022-07-10T10:57:16;4.30;;;1.60;;
13927;SDS011;7036;50.834;4.718;2022-07-10T10:59:53;2.17;;;1.40;;
13927;SDS011;7036;50.834;4.718;2022-07-10T11:02:26;4.27;;;1.30;;
13927;SDS011;7036;50.834;4.718;2022-07-10T11:05:38;1.47;;;1.23;;
13927;SDS011;7036;50.834;4.718;2022-07-10T11:10:28;7.50;;;1.40;;
13927;SDS011;7036;50.834;4.718;2022-07-10T11:13:01;2.87;;;1.30;;
13927;SDS011;7036;50.834;4.718;2022-07-10T11:15:44;3.27;;;1.20;;
13927;SDS011;7036;50.834;4.718;2022-07-10T11:18:13;6.27;;;1.27;;
13927;SDS011;7036;50.834;4.718;2022-07-10T11:20:40;4.03;;;1.40;;
13927;SDS011;7036;50.834;4.718;2022-07-10T11:29:04;4.90;;;1.57;;
13927;SDS011;7036;50.834;4.718;2022-07-10T11:31:33;4.97;;;1.40;;
13927;SDS011;7036;50.834;4.718;2022-07-10T11:34:09;2.33;;;1.33;;
13927;SDS011;7036;50.834;4.718;2022-07-10T11:36:38;3.97;;;1.40;;
13927;SDS011;7036;50.834;4.718;2022-07-10T11:39:04;2.70;;;1.50;;
13927;SDS011;7036;50.834;4.718;2022-07-10T11:41:30;3.83;;;1.03;;
13927;SDS011;7036;50.834;4.718;2022-07-10T11:43:57;2.53;;;1.43;;
13927;SDS011;7036;50.834;4.718;2022-07-10T11:46:24;2.40;;;1.37;;
13927;SDS011;7036;50.834;4.718;2022-07-10T11:48:51;5.23;;;1.77;;
13927;SDS011;7036;50.834;4.718;2022-07-10T11:51:18;3.60;;;1.70;;
13927;SDS011;7036;50.834;4.718;2022-07-10T11:54:03;2.13;;;1.03;;
13927;SDS011;7036;50.834;4.718;2022-07-10T11:56:32;2.30;;;1.37;;
13927;SDS011;7036;50.834;4.718;2022-07-10T11:58:56;2.47;;;1.40;;
13927;SDS011;7036;50.834;4.718;2022-07-10T12:01:22;4.03;;;1.27;;
13927;SDS011;7036;50.834;4.718;2022-07-10T12:04:00;3.50;;;1.23;;
13927;SDS011;7036;50.834;4.718;2022-07-10T12:06:28;1.40;;;1.30;;
13927;SDS011;7036;50.834;4.718;2022-07-10T12:08:54;1.57;;;1.23;;
13927;SDS011;7036;50.834;4.718;2022-07-10T12:11:22;4.63;;;1.60;;
13927;SDS011;7036;50.834;4.718;2022-07-10T12:13:50;2.73;;;1.40;;
13927;SDS011;7036;50.834;4.718;2022-07-10T12:16:16;2.03;;;1.20;;
13927;SDS011;7036;50.834;4.718;2022-07-10T12:18:43;4.47;;;1.30;;
13927;SDS011;7036;50.834;4.718;2022-07-10T12:21:10;1.60;;;1.10;;
13927;SDS011;7036;50.834;4.718;2022-07-10T12:23:36;1.20;;;1.10;;
13927;SDS011;7036;50.834;4.718;2022-07-10T12:26:04;2.80;;;1.47;;
13927;SDS011;7036;50.834;4.718;2022-07-10T12:28:30;4.13;;;1.50;;
13927;SDS011;7036;50.834;4.718;2022-07-10T12:30:57;2.30;;;1.37;;
13927;SDS011;7036;50.834;4.718;2022-07-10T12:33:24;3.47;;;1.50;;
13927;SDS011;7036;50.834;4.718;2022-07-10T12:35:58;2.73;;;1.20;;
13927;SDS011;7036;50.834;4.718;2022-07-10T12:38:30;3.57;;;1.37;;
13927;SDS011;7036;50.834;4.718;2022-07-10T12:41:06;4.83;;;1.50;;
13927;SDS011;7036;50.834;4.718;2022-07-10T12:43:32;2.47;;;1.60;;
13927;SDS011;7036;50.834;4.718;2022-07-10T12:46:15;2.70;;;1.47;;
13927;SDS011;7036;50.834;4.718;2022-07-10T12:49:06;1.30;;;1.07;;
13927;SDS011;7036;50.834;4.718;2022-07-10T12:51:33;2.40;;;1.20;;
13927;SDS011;7036;50.834;4.718;2022-07-10T12:53:59;2.20;;;1.50;;
13927;SDS011;7036;50.834;4.718;2022-07-10T12:56:33;2.43;;;1.67;;
13927;SDS011;7036;50.834;4.718;2022-07-10T12:59:03;1.77;;;1.30;;
13927;SDS011;7036;50.834;4.718;2022-07-10T13:01:44;1.67;;;1.10;;
13927;SDS011;7036;50.834;4.718;2022-07-10T13:04:10;2.97;;;1.30;;
13927;SDS011;7036;50.834;4.718;2022-07-10T13:06:38;3.57;;;1.60;;
13927;SDS011;7036;50.834;4.718;2022-07-10T13:11:46;2.17;;;1.60;;
13927;SDS011;7036;50.834;4.718;2022-07-10T13:14:13;2.50;;;1.37;;
13927;SDS011;7036;50.834;4.718;2022-07-10T13:16:40;1.80;;;1.23;;
13927;SDS011;7036;50.834;4.718;2022-07-10T13:19:07;1.50;;;1.40;;
13927;SDS011;7036;50.834;4.718;2022-07-10T13:21:34;2.63;;;1.43;;
13927;SDS011;7036;50.834;4.718;2022-07-10T13:24:01;2.27;;;1.20;;
13927;SDS011;7036;50.834;4.718;2022-07-10T13:26:27;1.73;;;1.33;;
13927;SDS011;7036;50.834;4.718;2022-07-10T13:28:55;3.20;;;1.50;;
13927;SDS011;7036;50.834;4.718;2022-07-10T13:31:21;2.23;;;1.53;;
13927;SDS011;7036;50.834;4.718;2022-07-10T13:33:48;1.90;;;1.40;;
13927;SDS011;7036;50.834;4.718;2022-07-10T13:36:15;2.43;;;1.40;;
13927;SDS011;7036;50.834;4.718;2022-07-10T13:38:42;5.20;;;1.40;;
13927;SDS011;7036;50.834;4.718;2022-07-10T13:41:10;2.10;;;1.43;;
13927;SDS011;7036;50.834;4.718;2022-07-10T13:43:37;1.80;;;1.43;;
13927;SDS011;7036;50.834;4.718;2022-07-10T13:46:04;2.50;;;1.70;;
13927;SDS011;7036;50.834;4.718;2022-07-10T13:48:31;1.87;;;1.30;;
13927;SDS011;7036;50.834;4.718;2022-07-10T13:50:58;2.10;;;1.60;;
13927;SDS011;7036;50.834;4.718;2022-07-10T13:53:25;1.10;;;0.97;;
13927;SDS011;7036;50.834;4.718;2022-07-10T13:55:52;2.27;;;1.37;;
13927;SDS011;7036;50.834;4.718;2022-07-10T13:58:19;1.90;;;0.97;;
13927;SDS011;7036;50.834;4.718;2022-07-10T14:00:46;2.33;;;1.43;;
13927;SDS011;7036;50.834;4.718;2022-07-10T14:03:12;1.93;;;1.23;;
13927;SDS011;7036;50.834;4.718;2022-07-10T14:05:39;1.80;;;1.37;;
13927;SDS011;7036;50.834;4.718;2022-07-10T14:08:06;2.53;;;1.30;;
13927;SDS011;7036;50.834;4.718;2022-07-10T14:10:33;2.20;;;1.23;;
13927;SDS011;7036;50.834;4.718;2022-07-10T14:13:00;1.20;;;1.10;;
13927;SDS011;7036;50.834;4.718;2022-07-10T14:15:27;2.43;;;1.70;;
13927;SDS011;7036;50.834;4.718;2022-07-10T14:17:54;1.77;;;1.30;;
13927;SDS011;7036;50.834;4.718;2022-07-10T14:20:21;2.60;;;1.50;;
13927;SDS011;7036;50.834;4.718;2022-07-10T14:22:48;1.60;;;1.20;;
13927;SDS011;7036;50.834;4.718;2022-07-10T14:25:16;1.57;;;1.30;;
13927;SDS011;7036;50.834;4.718;2022-07-10T14:27:43;1.30;;;1.20;;
13927;SDS011;7036;50.834;4.718;2022-07-10T14:30:10;1.53;;;1.30;;
13927;SDS011;7036;50.834;4.718;2022-07-10T14:32:37;1.53;;;1.20;;
13927;SDS011;7036;50.834;4.718;2022-07-10T14:35:04;1.80;;;1.23;;
13927;SDS011;7036;50.834;4.718;2022-07-10T14:37:31;1.60;;;1.13;;
13927;SDS011;7036;50.834;4.718;2022-07-10T14:39:58;2.60;;;1.40;;
13927;SDS011;7036;50.834;4.718;2022-07-10T14:42:25;4.43;;;1.33;;
13927;SDS011;7036;50.834;4.718;2022-07-10T14:44:52;2.73;;;1.30;;
13927;SDS011;7036;50.834;4.718;2022-07-10T14:47:19;1.30;;;1.07;;
13927;SDS011;7036;50.834;4.718;2022-07-10T14:49:46;2.23;;;1.37;;
13927;SDS011;7036;50.834;4.718;2022-07-10T14:52:13;3.50;;;1.30;;
13927;SDS011;7036;50.834;4.718;2022-07-10T14:54:40;1.77;;;1.10;;
13927;SDS011;7036;50.834;4.718;2022-07-10T14:57:07;1.80;;;1.20;;
13927;SDS011;7036;50.834;4.718;2022-07-10T14:59:33;1.90;;;1.70;;
13927;SDS011;7036;50.834;4.718;2022-07-10T15:02:00;1.47;;;1.10;;
13927;SDS011;7036;50.834;4.718;2022-07-10T15:04:27;3.10;;;0.97;;
13927;SDS011;7036;50.834;4.718;2022-07-10T15:06:54;2.97;;;1.20;;
13927;SDS011;7036;50.834;4.718;2022-07-10T15:09:22;1.43;;;1.10;;
13927;SDS011;7036;50.834;4.718;2022-07-10T15:11:49;1.30;;;1.07;;
13927;SDS011;7036;50.834;4.718;2022-07-10T15:14:16;1.60;;;1.30;;
13927;SDS011;7036;50.834;4.718;2022-07-10T15:16:43;1.33;;;1.10;;
13927;SDS011;7036;50.834;4.718;2022-07-10T15:19:10;1.40;;;1.10;;
13927;SDS011;7036;50.834;4.718;2022-07-10T15:21:37;2.37;;;1.27;;
13927;SDS011;7036;50.834;4.718;2022-07-10T15:24:04;2.50;;;1.50;;
13927;SDS011;7036;50.834;4.718;2022-07-10T15:26:31;3.33;;;1.40;;
13927;SDS011;7036;50.834;4.718;2022-07-10T15:28:58;1.20;;;1.10;;
13927;SDS011;7036;50.834;4.718;2022-07-10T15:31:25;2.63;;;0.97;;
13927;SDS011;7036;50.834;4.718;2022-07-10T15:33:52;1.60;;;1.20;;
13927;SDS011;7036;50.834;4.718;2022-07-10T15:36:19;2.80;;;1.10;;